createdAt,value
2018-09-17T00:00:44.720Z,1012.57
2018-09-17T00:01:44.688Z,1012.53
2018-09-17T00:02:44.661Z,1012.57
2018-09-17T00:03:44.632Z,1012.52
2018-09-17T00:04:45.178Z,1012.53
2018-09-17T00:05:44.576Z,1012.51
2018-09-17T00:06:44.547Z,1012.54
2018-09-17T00:07:44.520Z,1012.57
2018-09-17T00:08:44.493Z,1012.55
2018-09-17T00:09:44.465Z,1012.53
2018-09-17T00:10:44.440Z,1012.50
2018-09-17T00:11:44.407Z,1012.54
2018-09-17T00:12:44.380Z,1012.49
2018-09-17T00:13:44.351Z,1012.46
2018-09-17T00:14:44.323Z,1012.52
2018-09-17T00:15:44.296Z,1012.51
2018-09-17T00:16:44.268Z,1012.56
2018-09-17T00:17:44.239Z,1012.53
2018-09-17T00:18:44.210Z,1012.49
2018-09-17T00:19:44.182Z,1012.48
2018-09-17T00:20:44.154Z,1012.50
2018-09-17T00:21:44.127Z,1012.51
2018-09-17T00:22:44.097Z,1012.54
2018-09-17T00:23:44.070Z,1012.51
2018-09-17T00:24:44.042Z,1012.49
2018-09-17T00:25:44.015Z,1012.47
2018-09-17T00:26:43.984Z,1012.46
2018-09-17T00:27:43.958Z,1012.40
2018-09-17T00:28:43.930Z,1012.41
2018-09-17T00:29:43.901Z,1012.37
2018-09-17T00:30:43.873Z,1012.41
2018-09-17T00:31:43.845Z,1012.39
2018-09-17T00:32:43.816Z,1012.40
2018-09-17T00:33:43.787Z,1012.45
2018-09-17T00:34:43.762Z,1012.45
2018-09-17T00:35:43.732Z,1012.45
2018-09-17T00:36:43.707Z,1012.47
2018-09-17T00:37:43.675Z,1012.45
2018-09-17T00:38:43.646Z,1012.47
2018-09-17T00:39:43.618Z,1012.44
2018-09-17T00:40:43.591Z,1012.40
2018-09-17T00:41:43.561Z,1012.38
2018-09-17T00:42:43.533Z,1012.40
2018-09-17T00:43:43.507Z,1012.35
2018-09-17T00:44:43.477Z,1012.39
2018-09-17T00:45:43.449Z,1012.39
2018-09-17T00:46:43.426Z,1012.39
2018-09-17T00:47:43.394Z,1012.43
2018-09-17T00:48:43.365Z,1012.43
2018-09-17T00:49:43.334Z,1012.45
2018-09-17T00:50:43.305Z,1012.45
2018-09-17T00:51:43.277Z,1012.45
2018-09-17T00:52:43.247Z,1012.47
2018-09-17T00:53:43.220Z,1012.40
2018-09-17T00:54:43.191Z,1012.44
2018-09-17T00:55:43.163Z,1012.40
2018-09-17T00:56:43.133Z,1012.41
2018-09-17T00:57:43.117Z,1012.42
2018-09-17T00:58:43.076Z,1012.44
2018-09-17T00:59:43.048Z,1012.41
2018-09-17T01:00:43.020Z,1012.39
2018-09-17T01:01:42.992Z,1012.40
2018-09-17T01:02:42.962Z,1012.40
2018-09-17T01:03:42.934Z,1012.40
2018-09-17T01:04:42.905Z,1012.37
2018-09-17T01:05:42.876Z,1012.37
2018-09-17T01:06:42.847Z,1012.34
2018-09-17T01:07:42.818Z,1012.33
2018-09-17T01:08:42.791Z,1012.39
2018-09-17T01:09:42.763Z,1012.35
2018-09-17T01:10:42.732Z,1012.37
2018-09-17T01:11:42.704Z,1012.37
2018-09-17T01:12:42.676Z,1012.36
2018-09-17T01:13:42.646Z,1012.34
2018-09-17T01:14:42.618Z,1012.35
2018-09-17T01:15:42.588Z,1012.33
2018-09-17T01:16:42.562Z,1012.30
2018-09-17T01:17:42.533Z,1012.32
2018-09-17T01:18:42.503Z,1012.31
2018-09-17T01:19:42.473Z,1012.29
2018-09-17T01:20:42.447Z,1012.35
2018-09-17T01:21:42.418Z,1012.30
2018-09-17T01:22:42.391Z,1012.31
2018-09-17T01:23:42.359Z,1012.27
2018-09-17T01:24:42.330Z,1012.24
2018-09-17T01:25:42.301Z,1012.22
2018-09-17T01:26:42.273Z,1012.19
2018-09-17T01:27:42.245Z,1012.23
2018-09-17T01:28:42.216Z,1012.15
2018-09-17T01:29:42.189Z,1012.15
2018-09-17T01:30:42.159Z,1012.15
2018-09-17T01:31:42.128Z,1012.16
2018-09-17T01:32:42.102Z,1012.17
2018-09-17T01:33:42.072Z,1012.14
2018-09-17T01:34:42.063Z,1012.16
2018-09-17T01:35:42.016Z,1012.14
2018-09-17T01:36:41.987Z,1012.11
2018-09-17T01:37:41.958Z,1012.10
2018-09-17T01:38:41.928Z,1012.11
2018-09-17T01:39:41.899Z,1012.11
2018-09-17T01:40:41.873Z,1012.13
2018-09-17T01:41:41.843Z,1012.15
2018-09-17T01:42:41.817Z,1012.12
2018-09-17T01:43:41.787Z,1012.19
2018-09-17T01:44:41.758Z,1012.19
2018-09-17T01:45:41.729Z,1012.18
2018-09-17T01:46:41.700Z,1012.20
2018-09-17T01:47:41.673Z,1012.22
2018-09-17T01:48:41.644Z,1012.22
2018-09-17T01:49:41.619Z,1012.18
2018-09-17T01:50:41.589Z,1012.15
2018-09-17T01:51:41.558Z,1012.16
2018-09-17T01:52:41.532Z,1012.13
2018-09-17T01:53:41.502Z,1012.13
2018-09-17T01:54:41.474Z,1012.12
2018-09-17T01:55:41.446Z,1012.09
2018-09-17T01:56:41.417Z,1012.08
2018-09-17T01:57:41.392Z,1012.12
2018-09-17T01:58:41.361Z,1012.06
2018-09-17T01:59:41.332Z,1012.08
2018-09-17T02:00:41.306Z,1012.09
2018-09-17T02:01:41.280Z,1012.10
2018-09-17T02:02:41.246Z,1012.12
2018-09-17T02:03:41.218Z,1012.17
2018-09-17T02:04:41.192Z,1012.19
2018-09-17T02:05:41.163Z,1012.17
2018-09-17T02:06:41.136Z,1012.19
2018-09-17T02:07:41.106Z,1012.21
2018-09-17T02:08:41.138Z,1012.21
2018-09-17T02:09:41.056Z,1012.25
2018-09-17T02:10:41.022Z,1012.21
2018-09-17T02:11:40.995Z,1012.26
2018-09-17T02:12:40.966Z,1012.26
2018-09-17T02:13:40.938Z,1012.21
2018-09-17T02:14:40.908Z,1012.26
2018-09-17T02:15:40.880Z,1012.24
2018-09-17T02:16:40.853Z,1012.22
2018-09-17T02:17:40.825Z,1012.21
2018-09-17T02:18:40.795Z,1012.18
2018-09-17T02:19:40.766Z,1012.18
2018-09-17T02:20:40.738Z,1012.14
2018-09-17T02:21:40.712Z,1012.12
2018-09-17T02:22:40.682Z,1012.11
2018-09-17T02:23:40.655Z,1012.10
2018-09-17T02:24:40.625Z,1012.05
2018-09-17T02:25:40.599Z,1012.06
2018-09-17T02:26:40.574Z,1011.99
2018-09-17T02:27:40.544Z,1012.02
2018-09-17T02:28:40.512Z,1012.09
2018-09-17T02:29:40.485Z,1012.11
2018-09-17T02:30:40.459Z,1012.11
2018-09-17T02:31:40.429Z,1012.14
2018-09-17T02:32:40.401Z,1012.13
2018-09-17T02:33:40.372Z,1012.15
2018-09-17T02:34:40.347Z,1012.17
2018-09-17T02:35:40.314Z,1012.15
2018-09-17T02:36:40.292Z,1012.17
2018-09-17T02:37:40.259Z,1012.12
2018-09-17T02:38:40.233Z,1012.16
2018-09-17T02:39:40.203Z,1012.11
2018-09-17T02:40:40.171Z,1012.06
2018-09-17T02:41:40.143Z,1012.01
2018-09-17T02:42:40.117Z,1012.00
2018-09-17T02:43:40.091Z,1011.98
2018-09-17T02:44:40.058Z,1011.96
2018-09-17T02:45:40.030Z,1012.01
2018-09-17T02:46:40.009Z,1012.01
2018-09-17T02:47:39.972Z,1012.03
2018-09-17T02:48:40.704Z,1011.99
2018-09-17T02:49:39.918Z,1011.99
2018-09-17T02:50:39.887Z,1011.97
2018-09-17T02:51:39.860Z,1012.01
2018-09-17T02:52:39.832Z,1011.98
2018-09-17T02:53:39.908Z,1012.01
2018-09-17T02:54:39.774Z,1012.01
2018-09-17T02:55:39.747Z,1012.03
2018-09-17T02:56:39.717Z,1012.03
2018-09-17T02:57:39.690Z,1012.00
2018-09-17T02:58:39.661Z,1012.04
2018-09-17T02:59:39.633Z,1012.05
2018-09-17T03:00:39.606Z,1012.01
2018-09-17T03:01:39.575Z,1011.99
2018-09-17T03:02:39.546Z,1012.02
2018-09-17T03:03:39.518Z,1012.01
2018-09-17T03:04:39.490Z,1012.02
2018-09-17T03:05:39.462Z,1012.02
2018-09-17T03:06:39.432Z,1012.02
2018-09-17T03:07:39.404Z,1012.04
2018-09-17T03:08:39.377Z,1012.05
2018-09-17T03:09:39.347Z,1012.06
2018-09-17T03:10:39.317Z,1012.05
2018-09-17T03:11:39.290Z,1012.03
2018-09-17T03:12:39.262Z,1012.02
2018-09-17T03:13:39.233Z,1011.99
2018-09-17T03:14:39.205Z,1011.97
2018-09-17T03:15:39.174Z,1011.97
2018-09-17T03:16:39.147Z,1011.97
2018-09-17T03:17:39.119Z,1011.96
2018-09-17T03:18:39.098Z,1011.97
2018-09-17T03:19:39.060Z,1011.98
2018-09-17T03:20:39.051Z,1012.00
2018-09-17T03:21:39.006Z,1012.03
2018-09-17T03:22:38.972Z,1012.06
2018-09-17T03:23:38.944Z,1011.99
2018-09-17T03:24:38.944Z,1012.00
2018-09-17T03:25:38.888Z,1012.01
2018-09-17T03:26:38.861Z,1012.03
2018-09-17T03:27:38.830Z,1012.03
2018-09-17T03:28:38.800Z,1012.01
2018-09-17T03:29:38.772Z,1012.05
2018-09-17T03:30:38.744Z,1012.10
2018-09-17T03:31:38.717Z,1012.12
2018-09-17T03:32:38.691Z,1012.13
2018-09-17T03:33:38.660Z,1012.13
2018-09-17T03:34:38.626Z,1012.15
2018-09-17T03:35:38.598Z,1012.15
2018-09-17T03:36:38.573Z,1012.16
2018-09-17T03:37:38.543Z,1012.18
2018-09-17T03:38:38.515Z,1012.19
2018-09-17T03:39:38.483Z,1012.18
2018-09-17T03:40:38.457Z,1012.20
2018-09-17T03:41:38.430Z,1012.21
2018-09-17T03:42:38.398Z,1012.21
2018-09-17T03:43:38.366Z,1012.20
2018-09-17T03:44:38.339Z,1012.16
2018-09-17T03:45:38.310Z,1012.12
2018-09-17T03:46:38.318Z,1012.04
2018-09-17T03:47:38.254Z,1012.05
2018-09-17T03:48:38.224Z,1012.04
2018-09-17T03:49:38.195Z,1012.05
2018-09-17T03:50:38.164Z,1012.06
2018-09-17T03:51:38.136Z,1012.06
2018-09-17T03:52:38.109Z,1012.07
2018-09-17T03:53:38.078Z,1012.05
2018-09-17T03:54:38.050Z,1012.07
2018-09-17T03:55:38.021Z,1012.16
2018-09-17T03:56:37.992Z,1012.18
2018-09-17T03:57:37.965Z,1012.15
2018-09-17T03:58:37.933Z,1012.15
2018-09-17T03:59:37.905Z,1012.12
2018-09-17T04:00:37.877Z,1012.10
2018-09-17T04:01:37.897Z,1012.10
2018-09-17T04:02:37.816Z,1012.10
2018-09-17T04:03:37.789Z,1012.15
2018-09-17T04:04:37.761Z,1012.17
2018-09-17T04:05:37.731Z,1012.23
2018-09-17T04:06:37.698Z,1012.24
2018-09-17T04:07:37.672Z,1012.19
2018-09-17T04:08:37.647Z,1012.13
2018-09-17T04:09:37.615Z,1012.07
2018-09-17T04:10:37.584Z,1012.05
2018-09-17T04:11:37.556Z,1012.06
2018-09-17T04:12:37.530Z,1012.05
2018-09-17T04:13:37.500Z,1012.07
2018-09-17T04:14:37.478Z,1012.07
2018-09-17T04:15:37.444Z,1012.10
2018-09-17T04:16:37.416Z,1012.12
2018-09-17T04:17:37.384Z,1012.11
2018-09-17T04:18:37.355Z,1012.13
2018-09-17T04:19:37.327Z,1012.10
2018-09-17T04:20:37.299Z,1012.09
2018-09-17T04:21:37.271Z,1012.09
2018-09-17T04:22:37.238Z,1012.14
2018-09-17T04:23:37.214Z,1012.13
2018-09-17T04:24:37.181Z,1012.17
2018-09-17T04:25:37.150Z,1012.19
2018-09-17T04:26:37.122Z,1012.19
2018-09-17T04:27:37.092Z,1012.19
2018-09-17T04:28:37.064Z,1012.18
2018-09-17T04:29:37.035Z,1012.16
2018-09-17T04:30:37.007Z,1012.16
2018-09-17T04:31:37.041Z,1012.15
2018-09-17T04:32:36.947Z,1012.13
2018-09-17T04:33:36.920Z,1012.12
2018-09-17T04:34:36.889Z,1012.09
2018-09-17T04:35:36.860Z,1012.08
2018-09-17T04:36:36.831Z,1012.09
2018-09-17T04:37:36.803Z,1012.07
2018-09-17T04:38:36.773Z,1012.05
2018-09-17T04:39:36.770Z,1012.07
2018-09-17T04:40:36.716Z,1012.05
2018-09-17T04:41:36.687Z,1012.14
2018-09-17T04:42:36.659Z,1012.17
2018-09-17T04:43:36.632Z,1012.20
2018-09-17T04:44:36.599Z,1012.25
2018-09-17T04:45:36.571Z,1012.24
2018-09-17T04:46:36.543Z,1012.27
2018-09-17T04:47:36.512Z,1012.29
2018-09-17T04:48:36.482Z,1012.34
2018-09-17T04:49:36.454Z,1012.32
2018-09-17T04:50:36.424Z,1012.31
2018-09-17T04:51:36.395Z,1012.34
2018-09-17T04:52:36.366Z,1012.28
2018-09-17T04:53:36.337Z,1012.31
2018-09-17T04:54:36.307Z,1012.32
2018-09-17T04:55:36.277Z,1012.37
2018-09-17T04:56:36.249Z,1012.38
2018-09-17T04:57:36.219Z,1012.42
2018-09-17T04:58:36.190Z,1012.41
2018-09-17T04:59:36.161Z,1012.41
2018-09-17T05:00:43.552Z,1012.45
2018-09-17T05:02:28.959Z,1012.42
2018-09-17T05:03:28.905Z,1012.46
2018-09-17T05:05:21.712Z,1012.47
2018-09-17T05:06:21.680Z,1012.54
2018-09-17T05:08:15.002Z,1012.54
2018-09-17T05:09:14.948Z,1012.51
2018-09-17T05:11:08.070Z,1012.55
2018-09-17T05:12:08.014Z,1012.55
2018-09-17T05:14:00.854Z,1012.57
2018-09-17T05:15:00.845Z,1012.57
2018-09-17T05:16:54.089Z,1012.55
2018-09-17T05:17:54.059Z,1012.57
2018-09-17T05:19:47.183Z,1012.54
2018-09-17T05:20:47.183Z,1012.53
2018-09-17T05:22:40.425Z,1012.53
2018-09-17T05:23:40.393Z,1012.55
2018-09-17T05:25:33.227Z,1012.55
2018-09-17T05:26:33.166Z,1012.52
2018-09-17T05:28:25.995Z,1012.47
2018-09-17T05:29:25.941Z,1012.50
2018-09-17T05:31:18.751Z,1012.45
2018-09-17T05:32:18.717Z,1012.48
2018-09-17T05:34:12.039Z,1012.44
2018-09-17T05:35:12.021Z,1012.46
2018-09-17T05:36:11.952Z,1012.47
2018-09-17T05:37:11.928Z,1012.46
2018-09-17T05:38:11.895Z,1012.41
2018-09-17T05:39:11.868Z,1012.41
2018-09-17T05:40:11.838Z,1012.40
2018-09-17T05:41:11.808Z,1012.40
2018-09-17T05:42:11.781Z,1012.40
2018-09-17T05:43:11.753Z,1012.41
2018-09-17T05:44:11.720Z,1012.38
2018-09-17T05:45:11.693Z,1012.42
2018-09-17T05:46:11.667Z,1012.40
2018-09-17T05:47:11.636Z,1012.46
2018-09-17T05:48:11.606Z,1012.47
2018-09-17T05:49:11.582Z,1012.45
2018-09-17T05:50:11.548Z,1012.45
2018-09-17T05:51:11.524Z,1012.42
2018-09-17T05:52:11.494Z,1012.42
2018-09-17T05:53:11.566Z,1012.42
2018-09-17T05:54:11.432Z,1012.43
2018-09-17T05:55:11.408Z,1012.47
2018-09-17T05:56:11.377Z,1012.50
2018-09-17T05:57:11.351Z,1012.51
2018-09-17T05:58:11.321Z,1012.50
2018-09-17T05:59:11.292Z,1012.53
2018-09-17T06:00:11.270Z,1012.49
2018-09-17T06:01:11.235Z,1012.49
2018-09-17T06:02:11.262Z,1012.48
2018-09-17T06:03:11.184Z,1012.44
2018-09-17T06:04:11.150Z,1012.51
2018-09-17T06:05:11.123Z,1012.46
2018-09-17T06:06:11.095Z,1012.45
2018-09-17T06:07:11.186Z,1012.44
2018-09-17T06:08:11.037Z,1012.40
2018-09-17T06:09:11.012Z,1012.38
2018-09-17T06:10:10.984Z,1012.42
2018-09-17T06:11:10.954Z,1012.37
2018-09-17T06:12:10.939Z,1012.37
2018-09-17T06:13:10.896Z,1012.38
2018-09-17T06:14:10.871Z,1012.34
2018-09-17T06:15:10.844Z,1012.33
2018-09-17T06:16:10.814Z,1012.36
2018-09-17T06:17:10.791Z,1012.32
2018-09-17T06:18:10.760Z,1012.34
2018-09-17T06:19:10.733Z,1012.34
2018-09-17T06:20:10.704Z,1012.40
2018-09-17T06:21:10.677Z,1012.39
2018-09-17T06:22:10.709Z,1012.42
2018-09-17T06:23:10.645Z,1012.39
2018-09-17T06:24:10.596Z,1012.41
2018-09-17T06:25:10.570Z,1012.39
2018-09-17T06:26:10.542Z,1012.39
2018-09-17T06:27:10.515Z,1012.48
2018-09-17T06:28:10.486Z,1012.51
2018-09-17T06:29:10.460Z,1012.55
2018-09-17T06:30:10.441Z,1012.55
2018-09-17T06:31:10.408Z,1012.58
2018-09-17T06:32:10.429Z,1012.62
2018-09-17T06:33:10.354Z,1012.53
2018-09-17T06:34:10.330Z,1012.53
2018-09-17T06:35:10.306Z,1012.59
2018-09-17T06:36:10.331Z,1012.58
2018-09-17T06:37:10.248Z,1012.57
2018-09-17T06:38:10.228Z,1012.57
2018-09-17T06:39:10.201Z,1012.55
2018-09-17T06:40:10.170Z,1012.55
2018-09-17T06:41:10.145Z,1012.57
2018-09-17T06:42:10.122Z,1012.57
2018-09-17T06:43:10.091Z,1012.57
2018-09-17T06:44:10.067Z,1012.59
2018-09-17T06:45:10.061Z,1012.60
2018-09-17T06:46:10.028Z,1012.63
2018-09-17T06:47:09.986Z,1012.62
2018-09-17T06:48:09.985Z,1012.68
2018-09-17T06:49:09.936Z,1012.65
2018-09-17T06:50:09.916Z,1012.67
2018-09-17T06:51:09.887Z,1012.64
2018-09-17T06:52:09.860Z,1012.66
2018-09-17T06:53:09.836Z,1012.67
2018-09-17T06:54:09.809Z,1012.65
2018-09-17T06:55:09.784Z,1012.62
2018-09-17T06:56:09.758Z,1012.60
2018-09-17T06:57:09.733Z,1012.60
2018-09-17T06:58:09.710Z,1012.59
2018-09-17T06:59:09.682Z,1012.58
2018-09-17T07:00:09.661Z,1012.60
2018-09-17T07:01:09.632Z,1012.59
2018-09-17T07:02:09.607Z,1012.57
2018-09-17T07:03:09.581Z,1012.60
2018-09-17T07:04:09.555Z,1012.57
2018-09-17T07:05:09.532Z,1012.54
2018-09-17T07:06:09.533Z,1012.52
2018-09-17T07:07:09.481Z,1012.55
2018-09-17T07:08:09.455Z,1012.57
2018-09-17T07:09:09.430Z,1012.54
2018-09-17T07:10:09.405Z,1012.55
2018-09-17T07:11:09.382Z,1012.55
2018-09-17T07:12:09.359Z,1012.54
2018-09-17T07:13:09.332Z,1012.52
2018-09-17T07:14:09.305Z,1012.51
2018-09-17T07:15:09.294Z,1012.52
2018-09-17T07:16:09.268Z,1012.48
2018-09-17T07:17:09.231Z,1012.50
2018-09-17T07:18:09.230Z,1012.50
2018-09-17T07:19:09.189Z,1012.51
2018-09-17T07:20:09.156Z,1012.50
2018-09-17T07:21:09.134Z,1012.49
2018-09-17T07:22:09.112Z,1012.54
2018-09-17T07:23:09.084Z,1012.53
2018-09-17T07:24:09.060Z,1012.56
2018-09-17T07:25:09.035Z,1012.56
2018-09-17T07:26:09.010Z,1012.53
2018-09-17T07:27:08.986Z,1012.59
2018-09-17T07:28:08.963Z,1012.56
2018-09-17T07:29:08.937Z,1012.53
2018-09-17T07:30:08.913Z,1012.54
2018-09-17T07:31:08.889Z,1012.53
2018-09-17T07:32:08.863Z,1012.53
2018-09-17T07:33:08.841Z,1012.54
2018-09-17T07:34:08.821Z,1012.54
2018-09-17T07:35:08.794Z,1012.51
2018-09-17T07:36:08.787Z,1012.50
2018-09-17T07:37:08.744Z,1012.51
2018-09-17T07:38:08.720Z,1012.50
2018-09-17T07:39:08.694Z,1012.48
2018-09-17T07:40:08.668Z,1012.50
2018-09-17T07:41:08.647Z,1012.51
2018-09-17T07:42:08.716Z,1012.51
2018-09-17T07:43:08.598Z,1012.50
2018-09-17T07:44:08.575Z,1012.49
2018-09-17T07:45:08.551Z,1012.49
2018-09-17T07:46:08.527Z,1012.53
2018-09-17T07:47:08.504Z,1012.51
2018-09-17T07:48:08.487Z,1012.51
2018-09-17T07:49:08.455Z,1012.54
2018-09-17T07:50:08.434Z,1012.53
2018-09-17T07:51:08.412Z,1012.57
2018-09-17T07:52:08.382Z,1012.59
2018-09-17T07:53:08.392Z,1012.59
2018-09-17T07:54:08.336Z,1012.59
2018-09-17T07:55:08.317Z,1012.60
2018-09-17T07:56:08.316Z,1012.59
2018-09-17T07:57:08.263Z,1012.62
2018-09-17T07:58:08.251Z,1012.62
2018-09-17T07:59:09.147Z,1012.59
2018-09-17T08:00:08.196Z,1012.63
2018-09-17T08:01:08.170Z,1012.62
2018-09-17T08:02:08.145Z,1012.60
2018-09-17T08:03:08.125Z,1012.59
2018-09-17T08:04:08.098Z,1012.62
2018-09-17T08:05:08.079Z,1012.59
2018-09-17T08:06:08.055Z,1012.59
2018-09-17T08:07:08.033Z,1012.64
2018-09-17T08:08:08.007Z,1012.64
2018-09-17T08:09:07.990Z,1012.63
2018-09-17T08:10:07.959Z,1012.61
2018-09-17T08:11:07.938Z,1012.60
2018-09-17T08:12:07.913Z,1012.61
2018-09-17T08:13:07.892Z,1012.63
2018-09-17T08:14:07.869Z,1012.61
2018-09-17T08:15:07.847Z,1012.63
2018-09-17T08:16:07.826Z,1012.64
2018-09-17T08:17:07.933Z,1012.62
2018-09-17T08:18:07.778Z,1012.61
2018-09-17T08:19:07.755Z,1012.64
2018-09-17T08:20:07.730Z,1012.66
2018-09-17T08:21:07.725Z,1012.65
2018-09-17T08:22:07.690Z,1012.64
2018-09-17T08:23:07.663Z,1012.63
2018-09-17T08:24:07.640Z,1012.62
2018-09-17T08:25:07.618Z,1012.65
2018-09-17T08:26:07.601Z,1012.60
2018-09-17T08:27:07.571Z,1012.58
2018-09-17T08:28:07.553Z,1012.61
2018-09-17T08:29:07.526Z,1012.60
2018-09-17T08:30:07.505Z,1012.64
2018-09-17T08:31:07.498Z,1012.61
2018-09-17T08:32:07.454Z,1012.64
2018-09-17T08:33:07.436Z,1012.65
2018-09-17T08:34:07.413Z,1012.67
2018-09-17T08:35:07.390Z,1012.64
2018-09-17T08:36:07.367Z,1012.57
2018-09-17T08:37:07.344Z,1012.58
2018-09-17T08:38:07.341Z,1012.61
2018-09-17T08:39:07.300Z,1012.58
2018-09-17T08:40:07.275Z,1012.60
2018-09-17T08:41:07.249Z,1012.60
2018-09-17T08:42:07.231Z,1012.58
2018-09-17T08:43:07.208Z,1012.58
2018-09-17T08:44:07.192Z,1012.61
2018-09-17T08:45:07.211Z,1012.62
2018-09-17T08:46:07.141Z,1012.60
2018-09-17T08:47:07.117Z,1012.62
2018-09-17T08:48:07.089Z,1012.60
2018-09-17T08:49:07.072Z,1012.59
2018-09-17T08:50:07.053Z,1012.60
2018-09-17T08:51:07.029Z,1012.63
2018-09-17T08:52:07.023Z,1012.65
2018-09-17T08:53:07.018Z,1012.64
2018-09-17T08:54:06.967Z,1012.59
2018-09-17T08:55:06.938Z,1012.58
2018-09-17T08:56:06.919Z,1012.59
2018-09-17T08:57:06.897Z,1012.55
2018-09-17T08:58:06.890Z,1012.58
2018-09-17T08:59:06.856Z,1012.56
2018-09-17T09:00:06.834Z,1012.53
2018-09-17T09:01:06.810Z,1012.55
2018-09-17T09:02:06.790Z,1012.51
2018-09-17T09:03:06.768Z,1012.52
2018-09-17T09:04:06.808Z,1012.51
2018-09-17T09:05:06.798Z,1012.50
2018-09-17T09:06:06.705Z,1012.51
2018-09-17T09:07:06.785Z,1012.49
2018-09-17T09:08:06.681Z,1012.47
2018-09-17T09:09:06.639Z,1012.46
2018-09-17T09:10:06.620Z,1012.50
2018-09-17T09:11:06.599Z,1012.44
2018-09-17T09:12:06.571Z,1012.49
2018-09-17T09:13:06.563Z,1012.46
2018-09-17T09:14:06.536Z,1012.46
2018-09-17T09:15:06.529Z,1012.45
2018-09-17T09:16:06.495Z,1012.44
2018-09-17T09:17:06.478Z,1012.46
2018-09-17T09:18:06.451Z,1012.43
2018-09-17T09:19:06.430Z,1012.38
2018-09-17T09:20:06.407Z,1012.40
2018-09-17T09:21:06.389Z,1012.32
2018-09-17T09:22:06.366Z,1012.35
2018-09-17T09:23:06.345Z,1012.30
2018-09-17T09:24:06.326Z,1012.29
2018-09-17T09:25:06.307Z,1012.29
2018-09-17T09:26:06.315Z,1012.27
2018-09-17T09:27:06.266Z,1012.29
2018-09-17T09:28:06.243Z,1012.32
2018-09-17T09:29:06.222Z,1012.29
2018-09-17T09:30:06.204Z,1012.28
2018-09-17T09:31:06.190Z,1012.23
2018-09-17T09:32:06.164Z,1012.26
2018-09-17T09:33:06.143Z,1012.27
2018-09-17T09:34:06.123Z,1012.29
2018-09-17T09:35:06.105Z,1012.25
2018-09-17T09:36:06.086Z,1012.29
2018-09-17T09:37:06.057Z,1012.28
2018-09-17T09:38:06.096Z,1012.28
2018-09-17T09:39:06.024Z,1012.29
2018-09-17T09:40:06.004Z,1012.25
2018-09-17T09:41:05.987Z,1012.22
2018-09-17T09:42:05.961Z,1012.27
2018-09-17T09:43:05.942Z,1012.30
2018-09-17T09:44:05.923Z,1012.27
2018-09-17T09:45:05.901Z,1012.26
2018-09-17T09:46:05.888Z,1012.28
2018-09-17T09:47:05.867Z,1012.32
2018-09-17T09:48:05.840Z,1012.30
2018-09-17T09:49:05.822Z,1012.27
2018-09-17T09:50:05.802Z,1012.27
2018-09-17T09:51:05.784Z,1012.28
2018-09-17T09:52:05.761Z,1012.26
2018-09-17T09:53:05.745Z,1012.26
2018-09-17T09:54:05.722Z,1012.22
2018-09-17T09:55:05.702Z,1012.24
2018-09-17T09:56:05.686Z,1012.21
2018-09-17T09:57:05.661Z,1012.20
2018-09-17T09:58:05.642Z,1012.25
2018-09-17T09:59:05.620Z,1012.22
2018-09-17T10:00:05.604Z,1012.22
2018-09-17T10:01:05.583Z,1012.23
2018-09-17T10:02:05.562Z,1012.22
2018-09-17T10:03:05.542Z,1012.19
2018-09-17T10:04:05.523Z,1012.20
2018-09-17T10:05:05.504Z,1012.20
2018-09-17T10:06:05.482Z,1012.22
2018-09-17T10:07:05.465Z,1012.22
2018-09-17T10:08:05.446Z,1012.27
2018-09-17T10:09:05.425Z,1012.24
2018-09-17T10:10:05.405Z,1012.27
2018-09-17T10:11:05.386Z,1012.25
2018-09-17T10:12:05.366Z,1012.26
2018-09-17T10:13:05.350Z,1012.23
2018-09-17T10:14:05.327Z,1012.23
2018-09-17T10:15:05.310Z,1012.19
2018-09-17T10:16:05.286Z,1012.21
2018-09-17T10:17:05.269Z,1012.24
2018-09-17T10:18:05.248Z,1012.25
2018-09-17T10:19:05.230Z,1012.26
2018-09-17T10:20:05.208Z,1012.28
2018-09-17T10:21:05.189Z,1012.31
2018-09-17T10:22:05.171Z,1012.33
2018-09-17T10:23:05.157Z,1012.33
2018-09-17T10:24:05.133Z,1012.37
2018-09-17T10:25:05.110Z,1012.34
2018-09-17T10:26:05.103Z,1012.31
2018-09-17T10:27:05.101Z,1012.28
2018-09-17T10:28:05.054Z,1012.32
2018-09-17T10:29:05.035Z,1012.31
2018-09-17T10:30:05.017Z,1012.27
2018-09-17T10:31:04.997Z,1012.29
2018-09-17T10:32:04.979Z,1012.28
2018-09-17T10:33:04.957Z,1012.29
2018-09-17T10:34:04.944Z,1012.33
2018-09-17T10:35:04.921Z,1012.31
2018-09-17T10:36:13.231Z,1012.34
2018-09-17T10:37:58.244Z,1012.29
2018-09-17T10:38:58.537Z,1012.30
2018-09-17T10:40:52.237Z,1012.27
2018-09-17T10:41:52.202Z,1012.26
2018-09-17T10:43:45.658Z,1012.19
2018-09-17T10:44:45.322Z,1012.17
2018-09-17T10:45:45.292Z,1012.20
2018-09-17T10:46:45.270Z,1012.13
2018-09-17T10:47:45.256Z,1012.17
2018-09-17T10:48:45.231Z,1012.18
2018-09-17T10:49:45.224Z,1012.15
2018-09-17T10:50:45.193Z,1012.17
2018-09-17T10:51:45.185Z,1012.15
2018-09-17T10:52:45.161Z,1012.11
2018-09-17T10:53:45.155Z,1012.11
2018-09-17T10:54:45.121Z,1012.12
2018-09-17T10:55:45.114Z,1012.12
2018-09-17T10:56:45.088Z,1012.10
2018-09-17T10:57:45.079Z,1012.10
2018-09-17T10:58:45.073Z,1012.10
2018-09-17T10:59:45.033Z,1012.06
2018-09-17T11:00:45.016Z,1012.09
2018-09-17T11:01:45.001Z,1012.05
2018-09-17T11:02:44.978Z,1012.03
2018-09-17T11:03:44.972Z,1012.01
2018-09-17T11:04:46.634Z,1012.02
2018-09-17T11:05:44.928Z,1011.99
2018-09-17T11:06:44.944Z,1011.95
2018-09-17T11:07:44.896Z,1011.97
2018-09-17T11:08:46.629Z,1011.97
2018-09-17T11:09:44.861Z,1012.00
2018-09-17T11:10:44.832Z,1011.98
2018-09-17T11:11:46.620Z,1011.99
2018-09-17T11:12:44.795Z,1011.93
2018-09-17T11:13:44.854Z,1011.92
2018-09-17T11:14:46.620Z,1011.91
2018-09-17T11:15:44.795Z,1011.92
2018-09-17T11:16:44.749Z,1011.88
2018-09-17T11:17:46.734Z,1011.92
2018-09-17T11:18:44.716Z,1011.89
2018-09-17T11:19:44.688Z,1011.88
2018-09-17T11:20:44.676Z,1011.91
2018-09-17T11:21:44.636Z,1011.84
2018-09-17T11:22:44.633Z,1011.83
2018-09-17T11:23:44.611Z,1011.83
2018-09-17T11:24:44.601Z,1011.86
2018-09-17T11:25:44.609Z,1011.81
2018-09-17T11:26:44.556Z,1011.85
2018-09-17T11:27:46.134Z,1011.87
2018-09-17T11:28:44.525Z,1011.88
2018-09-17T11:29:44.506Z,1011.83
2018-09-17T11:30:44.507Z,1011.84
2018-09-17T11:31:44.473Z,1011.81
2018-09-17T11:32:44.466Z,1011.77
2018-09-17T11:33:44.418Z,1011.77
2018-09-17T11:34:46.132Z,1011.81
2018-09-17T11:35:44.408Z,1011.79
2018-09-17T11:36:44.442Z,1011.77
2018-09-17T11:37:44.404Z,1011.77
2018-09-17T11:38:46.126Z,1011.78
2018-09-17T11:39:44.338Z,1011.77
2018-09-17T11:40:44.317Z,1011.76
2018-09-17T11:41:44.283Z,1011.69
2018-09-17T11:42:44.282Z,1011.70
2018-09-17T11:43:46.186Z,1011.69
2018-09-17T11:44:44.226Z,1011.70
2018-09-17T11:45:44.232Z,1011.72
2018-09-17T11:46:46.141Z,1011.68
2018-09-17T11:47:44.187Z,1011.70
2018-09-17T11:48:44.153Z,1011.71
2018-09-17T11:49:45.675Z,1011.68
2018-09-17T11:50:44.124Z,1011.69
2018-09-17T11:51:44.095Z,1011.69
2018-09-17T11:52:44.080Z,1011.74
2018-09-17T11:53:44.095Z,1011.68
2018-09-17T11:54:47.634Z,1011.69
2018-09-17T11:55:44.055Z,1011.68
2018-09-17T11:56:44.003Z,1011.68
2018-09-17T11:57:44.023Z,1011.66
2018-09-17T11:58:45.636Z,1011.59
2018-09-17T11:59:43.992Z,1011.60
2018-09-17T12:00:43.970Z,1011.60
2018-09-17T12:01:43.972Z,1011.61
2018-09-17T12:02:43.913Z,1011.62
2018-09-17T12:03:43.890Z,1011.61
2018-09-17T12:04:43.868Z,1011.61
2018-09-17T12:05:43.857Z,1011.63
2018-09-17T12:06:45.645Z,1011.61
2018-09-17T12:07:43.829Z,1011.57
2018-09-17T12:08:43.801Z,1011.60
2018-09-17T12:09:43.780Z,1011.55
2018-09-17T12:10:43.812Z,1011.58
2018-09-17T12:11:43.748Z,1011.51
2018-09-17T12:12:44.733Z,1011.54
2018-09-17T12:13:43.743Z,1011.51
2018-09-17T12:14:43.693Z,1011.52
2018-09-17T12:15:43.682Z,1011.48
2018-09-17T12:16:43.667Z,1011.50
2018-09-17T12:17:43.645Z,1011.50
2018-09-17T12:18:43.630Z,1011.55